Time;durP1;ratioP1;P1;durP2;ratioP2;P2;SDS_P1;SDS_P2;PMS_P1;PMS_P2;Temp;Humidity;BMP_temperature;BMP_pressure;BME280_temperature;BME280_humidity;BME280_pressure;Samples;Min_cycle;Max_cycle;Signal;HPM_P1;HPM_P2
2023/03/20 00:01:29;;;;;;;10.30;9.20;;;7.10;99.90;;;;;;6248242;22;20397;-86
2023/03/20 00:03:56;;;;;;;10.98;9.35;;;7.00;99.90;;;;;;6275355;22;20421;-86
2023/03/20 00:06:24;;;;;;;9.55;8.65;;;7.00;99.90;;;;;;6272536;22;20373;-87
2023/03/20 00:08:52;;;;;;;9.80;8.80;;;7.00;99.90;;;;;;6275049;22;20338;-86
2023/03/20 00:11:33;;;;;;;12.20;10.00;;;7.10;99.90;;;;;;6247492;22;20367;-85
2023/03/20 00:14:05;;;;;;;12.98;9.52;;;6.90;99.90;;;;;;6273825;22;20389;-88
2023/03/20 00:16:34;;;;;;;11.65;10.45;;;6.80;99.90;;;;;;6242914;23;20417;-86
2023/03/20 00:19:02;;;;;;;11.75;10.48;;;6.70;99.90;;;;;;6241903;23;20344;-88
2023/03/20 00:21:28;;;;;;;12.38;11.00;;;6.50;99.90;;;;;;6237815;23;20404;-86
2023/03/20 00:23:55;;;;;;;11.60;10.40;;;6.40;99.90;;;;;;6245990;23;20348;-86
2023/03/20 00:26:25;;;;;;;12.68;11.32;;;6.40;99.90;;;;;;6215980;23;20783;-87
2023/03/20 00:28:52;;;;;;;13.45;12.15;;;6.50;99.90;;;;;;6243545;23;20506;-86
2023/03/20 00:31:36;;;;;;;12.40;11.10;;;6.50;99.90;;;;;;6215835;23;20665;-86
2023/03/20 00:34:05;;;;;;;12.07;10.77;;;6.60;99.90;;;;;;6214867;23;20783;-85
2023/03/20 00:36:32;;;;;;;12.18;10.98;;;6.50;99.90;;;;;;6243423;23;20375;-86
2023/03/20 00:38:58;;;;;;;12.50;11.30;;;6.40;99.90;;;;;;6217889;23;20352;-86
2023/03/20 00:41:34;;;;;;;12.70;11.38;;;6.40;99.90;;;;;;6218127;23;20356;-86
2023/03/20 00:44:23;;;;;;;13.25;11.90;;;6.50;99.90;;;;;;6217240;23;20446;-86
2023/03/20 00:47:00;;;;;;;14.18;12.75;;;6.40;99.90;;;;;;6248650;23;20340;-86
2023/03/20 00:49:31;;;;;;;13.82;12.45;;;6.40;99.90;;;;;;6236859;22;20352;-86
2023/03/20 00:51:57;;;;;;;13.98;12.50;;;6.40;99.90;;;;;;6267037;22;20325;-85
2023/03/20 00:54:23;;;;;;;13.17;11.87;;;6.60;99.90;;;;;;6229156;23;20442;-86
2023/03/20 00:56:57;;;;;;;13.83;12.43;;;6.80;99.90;;;;;;6220271;23;20390;-87
2023/03/20 00:59:28;;;;;;;13.13;11.82;;;6.80;99.90;;;;;;6214546;23;20360;-86
2023/03/20 01:01:57;;;;;;;12.93;11.73;;;6.80;99.90;;;;;;6215256;23;20370;-86
2023/03/20 01:04:23;;;;;;;13.43;12.13;;;6.90;99.90;;;;;;6217154;23;20686;-85
2023/03/20 01:06:49;;;;;;;13.70;12.30;;;6.80;99.90;;;;;;6244051;23;20348;-85
2023/03/20 01:09:15;;;;;;;15.48;12.05;;;6.80;99.90;;;;;;6243912;23;20406;-85
2023/03/20 01:11:43;;;;;;;13.95;12.45;;;6.90;99.90;;;;;;6242843;23;20367;-86
2023/03/20 01:14:14;;;;;;;14.27;12.23;;;6.90;99.90;;;;;;6243440;23;20340;-86
2023/03/20 01:16:41;;;;;;;12.85;11.63;;;6.90;99.90;;;;;;6215854;23;20447;-86
2023/03/20 01:19:12;;;;;;;15.17;12.83;;;7.00;99.90;;;;;;6241237;23;20340;-87
2023/03/20 01:21:37;;;;;;;14.15;12.73;;;6.90;99.90;;;;;;6240290;23;20451;-86
2023/03/20 01:24:07;;;;;;;15.82;14.02;;;6.80;99.90;;;;;;6243417;23;20359;-85
2023/03/20 01:26:38;;;;;;;14.40;13.00;;;6.70;99.90;;;;;;6215885;23;20359;-86
2023/03/20 01:29:16;;;;;;;13.17;11.97;;;6.80;99.90;;;;;;6242072;23;20667;-85
2023/03/20 01:31:42;;;;;;;15.05;13.55;;;7.00;99.90;;;;;;6241332;23;20364;-85
2023/03/20 01:34:10;;;;;;;13.65;12.32;;;7.00;99.90;;;;;;6241995;23;20829;-87
2023/03/20 01:36:36;;;;;;;12.87;11.67;;;7.00;99.90;;;;;;6213970;23;20450;-87
2023/03/20 01:39:02;;;;;;;13.05;11.68;;;7.10;99.90;;;;;;6242326;23;20340;-85
2023/03/20 01:41:29;;;;;;;13.82;12.32;;;7.10;99.90;;;;;;6215651;23;20376;-85
2023/03/20 01:43:54;;;;;;;13.45;12.05;;;7.10;99.90;;;;;;6215881;23;20821;-84
2023/03/20 01:46:29;;;;;;;12.93;11.63;;;7.20;99.90;;;;;;6242173;23;20419;-85
2023/03/20 01:49:05;;;;;;;14.20;12.80;;;7.10;99.90;;;;;;6241407;23;20631;-85
2023/03/20 01:51:34;;;;;;;12.30;11.02;;;7.10;99.90;;;;;;6242695;23;20823;-86
2023/03/20 01:54:03;;;;;;;13.35;11.95;;;7.10;99.90;;;;;;6242053;23;20344;-86
2023/03/20 01:56:34;;;;;;;13.88;12.57;;;7.10;99.90;;;;;;6214975;23;20422;-86
2023/03/20 01:59:05;;;;;;;13.70;12.38;;;7.20;99.90;;;;;;6241933;23;20340;-85
2023/03/20 02:01:34;;;;;;;14.00;12.70;;;7.10;99.90;;;;;;6242365;23;20386;-85
2023/03/20 02:04:00;;;;;;;14.50;13.02;;;7.00;99.90;;;;;;6218180;23;20348;-85
2023/03/20 02:06:26;;;;;;;13.60;12.30;;;6.90;99.90;;;;;;6217429;23;20391;-85
2023/03/20 02:08:52;;;;;;;13.38;12.15;;;6.90;99.90;;;;;;6243595;23;20358;-85
2023/03/20 02:11:23;;;;;;;13.75;12.32;;;6.90;99.90;;;;;;6218231;23;20449;-85
2023/03/20 02:13:52;;;;;;;12.98;11.68;;;7.00;99.90;;;;;;6217814;23;20348;-86
2023/03/20 02:16:18;;;;;;;12.52;11.23;;;7.10;99.90;;;;;;6245077;23;20853;-86
2023/03/20 02:18:47;;;;;;;12.63;11.40;;;7.20;99.90;;;;;;6216186;23;20443;-86
2023/03/20 02:21:32;;;;;;;12.02;10.93;;;7.20;99.90;;;;;;6217493;23;20384;-84
2023/03/20 02:24:35;;;;;;;11.82;10.73;;;7.30;99.90;;;;;;6216898;23;20348;-86
2023/03/20 02:27:04;;;;;;;13.17;11.87;;;7.30;99.90;;;;;;6220747;23;20352;-86
2023/03/20 02:30:00;;;;;;;13.00;11.70;;;7.30;99.90;;;;;;6217764;22;20382;-86
2023/03/20 02:32:40;;;;;;;12.57;11.35;;;7.40;99.90;;;;;;6215626;23;20395;-86
2023/03/20 02:35:36;;;;;;;13.32;11.32;;;7.50;99.90;;;;;;6243991;23;20340;-87
2023/03/20 02:38:10;;;;;;;12.48;11.18;;;7.70;99.90;;;;;;6197050;23;20347;-87
2023/03/20 02:40:42;;;;;;;11.90;10.70;;;7.70;99.90;;;;;;6243141;23;20914;-86
2023/03/20 02:43:24;;;;;;;13.07;11.57;;;7.70;99.90;;;;;;6216960;23;20368;-86
2023/03/20 02:46:11;;;;;;;12.88;11.65;;;7.60;99.90;;;;;;6243206;23;20371;-85
2023/03/20 02:48:54;;;;;;;12.98;11.68;;;7.60;99.90;;;;;;6244453;23;20371;-85
2023/03/20 02:51:43;;;;;;;12.53;11.33;;;7.70;99.90;;;;;;6245345;23;20845;-86
2023/03/20 02:54:17;;;;;;;12.52;11.32;;;7.60;99.90;;;;;;6245610;23;20359;-86
2023/03/20 02:56:59;;;;;;;12.88;11.65;;;7.70;99.90;;;;;;6245899;23;20376;-86
2023/03/20 03:00:03;;;;;;;12.02;10.82;;;7.60;99.90;;;;;;6245370;23;20804;-87
2023/03/20 03:02:55;;;;;;;13.50;12.10;;;7.60;99.90;;;;;;6225217;23;20353;-87
2023/03/20 03:05:30;;;;;;;13.40;12.10;;;7.30;99.90;;;;;;6216778;23;20371;-87
2023/03/20 03:07:59;;;;;;;13.35;11.85;;;7.30;99.90;;;;;;6215831;23;20368;-86
2023/03/20 03:10:35;;;;;;;15.15;11.43;;;7.40;99.90;;;;;;6216517;23;20356;-87
2023/03/20 03:13:04;;;;;;;12.68;11.38;;;7.40;99.90;;;;;;6215006;23;20745;-87
2023/03/20 03:15:37;;;;;;;12.52;11.18;;;7.40;99.90;;;;;;6243271;23;20455;-87
2023/03/20 03:18:05;;;;;;;12.60;11.40;;;7.40;99.90;;;;;;6215668;23;20822;-87
2023/03/20 03:20:37;;;;;;;12.75;11.43;;;7.30;99.90;;;;;;6244410;23;20811;-87
2023/03/20 03:23:04;;;;;;;12.00;10.90;;;7.30;99.90;;;;;;6216937;23;20445;-88
2023/03/20 03:25:34;;;;;;;13.23;11.93;;;7.40;99.90;;;;;;6243985;23;20387;-87
2023/03/20 03:28:18;;;;;;;12.77;11.57;;;7.40;99.90;;;;;;6215531;23;20894;-86
2023/03/20 03:30:44;;;;;;;12.82;11.60;;;7.50;99.90;;;;;;6243782;23;20818;-87
2023/03/20 03:33:20;;;;;;;13.63;12.30;;;7.50;99.90;;;;;;6216575;23;20364;-86
2023/03/20 03:35:47;;;;;;;15.05;13.30;;;7.50;99.90;;;;;;6217783;23;20881;-87
2023/03/20 03:38:22;;;;;;;13.43;12.15;;;7.50;99.90;;;;;;6217996;23;20356;-87
2023/03/20 03:41:16;;;;;;;13.60;12.30;;;7.60;99.90;;;;;;6217609;23;20348;-89
2023/03/20 03:43:50;;;;;;;14.07;12.68;;;7.60;99.90;;;;;;6244135;23;20862;-87
2023/03/20 03:46:18;;;;;;;12.98;11.82;;;7.60;99.90;;;;;;6216550;23;20846;-87
2023/03/20 03:48:49;;;;;;;13.10;11.73;;;7.70;99.90;;;;;;6244060;23;20368;-88
2023/03/20 03:51:19;;;;;;;12.63;11.53;;;7.70;99.90;;;;;;6244235;23;20355;-87
2023/03/20 03:53:54;;;;;;;11.73;10.63;;;7.70;99.90;;;;;;6243810;23;20340;-87
2023/03/20 03:56:23;;;;;;;12.13;11.02;;;7.70;99.90;;;;;;6244502;23;20384;-87
2023/03/20 03:58:55;;;;;;;12.00;10.90;;;7.90;99.90;;;;;;6219796;23;20348;-87
2023/03/20 04:01:27;;;;;;;12.27;10.98;;;8.00;99.90;;;;;;6219043;23;20363;-87
2023/03/20 04:03:59;;;;;;;12.27;11.07;;;8.00;99.90;;;;;;6220838;23;20423;-87
2023/03/20 04:06:26;;;;;;;12.13;10.93;;;7.90;99.90;;;;;;6222076;23;20371;-87
2023/03/20 04:08:52;;;;;;;12.43;11.27;;;7.90;99.90;;;;;;6238628;23;20368;-85
2023/03/20 04:11:51;;;;;;;12.52;11.25;;;7.90;99.90;;;;;;6265956;22;20352;-86
2023/03/20 04:14:17;;;;;;;13.07;11.77;;;8.00;99.90;;;;;;6217939;23;20387;-87
2023/03/20 04:16:43;;;;;;;13.40;12.13;;;7.90;99.90;;;;;;6215248;23;21164;-86
2023/03/20 04:19:08;;;;;;;12.83;11.60;;;7.90;99.90;;;;;;6216923;23;20421;-87
2023/03/20 04:21:34;;;;;;;12.93;11.73;;;7.80;99.90;;;;;;6243391;23;20351;-87
2023/03/20 04:24:00;;;;;;;14.15;12.75;;;7.80;99.90;;;;;;6241994;23;20349;-86
2023/03/20 04:26:26;;;;;;;13.60;12.18;;;7.80;99.90;;;;;;6214407;23;20482;-87
2023/03/20 04:28:52;;;;;;;13.57;12.30;;;7.80;99.90;;;;;;6214984;23;20825;-86
2023/03/20 04:31:18;;;;;;;13.60;12.30;;;7.90;99.90;;;;;;6190930;23;20458;-86
2023/03/20 04:33:44;;;;;;;13.48;12.27;;;7.90;99.90;;;;;;6216438;23;20359;-86
2023/03/20 04:36:11;;;;;;;12.70;11.50;;;7.90;99.90;;;;;;6243518;23;20680;-85
2023/03/20 04:38:37;;;;;;;13.70;12.40;;;8.00;99.90;;;;;;6215948;23;20849;-86
2023/03/20 04:41:03;;;;;;;13.50;12.20;;;8.00;99.90;;;;;;6218952;23;20416;-85
2023/03/20 04:43:29;;;;;;;12.85;11.55;;;8.00;99.90;;;;;;6244416;23;20348;-86
2023/03/20 04:45:55;;;;;;;12.80;11.60;;;8.10;99.90;;;;;;6215609;23;20421;-87
2023/03/20 04:48:21;;;;;;;13.32;12.05;;;8.20;99.90;;;;;;6215101;23;20414;-89
2023/03/20 04:50:47;;;;;;;13.70;12.38;;;8.00;99.90;;;;;;6215917;23;20864;-86
2023/03/20 04:53:17;;;;;;;14.05;12.75;;;8.00;99.90;;;;;;6216112;23;20361;-87
2023/03/20 04:55:44;;;;;;;13.30;12.00;;;8.00;99.90;;;;;;6242553;23;20372;-86
2023/03/20 04:58:11;;;;;;;13.15;11.98;;;8.00;99.90;;;;;;6214266;23;20362;-86
2023/03/20 05:00:37;;;;;;;13.63;12.30;;;8.00;99.90;;;;;;6242181;23;20424;-86
2023/03/20 05:03:02;;;;;;;13.57;12.27;;;8.00;99.90;;;;;;6216659;23;20356;-87
2023/03/20 05:05:28;;;;;;;13.63;12.35;;;8.00;99.90;;;;;;6216718;23;20352;-86
2023/03/20 05:07:54;;;;;;;13.40;12.10;;;8.00;99.90;;;;;;6216854;23;20691;-87
2023/03/20 05:10:20;;;;;;;14.95;13.48;;;8.00;99.90;;;;;;6217781;23;20365;-86
2023/03/20 05:12:46;;;;;;;14.35;12.98;;;8.00;99.90;;;;;;6217604;23;20353;-86
2023/03/20 05:15:13;;;;;;;14.07;12.65;;;7.90;99.90;;;;;;6214582;23;20364;-87
2023/03/20 05:17:38;;;;;;;15.63;13.63;;;7.90;99.90;;;;;;6216265;23;20672;-87
2023/03/20 05:20:05;;;;;;;14.30;12.90;;;7.80;99.90;;;;;;6243757;23;20348;-87
2023/03/20 05:22:31;;;;;;;14.95;13.55;;;7.80;99.90;;;;;;6243154;23;20359;-87
2023/03/20 05:24:57;;;;;;;15.88;14.38;;;7.90;99.90;;;;;;6215326;23;20364;-87
2023/03/20 05:27:22;;;;;;;19.05;17.17;;;7.90;99.90;;;;;;6215639;23;20491;-87
2023/03/20 05:29:48;;;;;;;28.02;25.02;;;7.70;99.90;;;;;;6243115;23;20417;-86
2023/03/20 05:32:14;;;;;;;33.33;29.63;;;7.80;99.90;;;;;;6215056;23;20352;-87
2023/03/20 05:34:40;;;;;;;34.47;30.40;;;8.00;99.90;;;;;;6240631;23;20506;-86
2023/03/20 05:37:06;;;;;;;38.90;31.80;;;8.10;99.90;;;;;;6240374;23;20468;-87
2023/03/20 05:39:31;;;;;;;34.45;29.85;;;8.30;99.90;;;;;;6243585;23;20348;-87
2023/03/20 05:41:57;;;;;;;42.67;32.90;;;8.50;99.90;;;;;;6244215;23;20818;-87
2023/03/20 05:44:23;;;;;;;42.40;33.55;;;8.50;99.90;;;;;;6242633;23;20439;-87
2023/03/20 05:46:48;;;;;;;41.63;33.37;;;8.60;99.90;;;;;;6214328;23;20642;-86
2023/03/20 05:49:14;;;;;;;49.73;37.57;;;8.70;99.90;;;;;;6240213;23;20348;-87
2023/03/20 05:51:40;;;;;;;53.05;40.80;;;8.60;99.90;;;;;;6213784;23;20363;-87
2023/03/20 05:54:06;;;;;;;61.88;44.97;;;8.60;99.90;;;;;;6241507;23;20348;-85
2023/03/20 05:56:32;;;;;;;62.38;44.35;;;8.50;99.90;;;;;;6212088;23;20437;-87
2023/03/20 05:59:01;;;;;;;76.57;49.47;;;8.70;99.90;;;;;;6240079;23;20340;-86
2023/03/20 06:01:27;;;;;;;76.63;50.17;;;8.70;99.90;;;;;;6240527;23;20401;-87
2023/03/20 06:03:53;;;;;;;76.95;49.80;;;8.60;99.90;;;;;;6242270;23;20408;-88
2023/03/20 06:06:19;;;;;;;74.47;48.88;;;8.60;99.90;;;;;;6241288;23;20344;-86
2023/03/20 06:08:45;;;;;;;76.22;50.35;;;8.70;99.90;;;;;;6241349;23;20344;-86
2023/03/20 06:11:11;;;;;;;77.30;48.55;;;8.50;99.90;;;;;;6215368;23;20485;-86
2023/03/20 06:13:37;;;;;;;70.40;46.00;;;8.60;99.90;;;;;;6241659;23;20352;-86
2023/03/20 06:16:03;;;;;;;71.18;46.35;;;8.60;99.90;;;;;;6243103;23;20422;-87
2023/03/20 06:18:31;;;;;;;71.95;47.65;;;8.60;99.90;;;;;;6214380;23;20841;-86
2023/03/20 06:20:57;;;;;;;76.55;47.58;;;8.70;99.90;;;;;;6214930;23;20355;-86
2023/03/20 06:23:24;;;;;;;74.93;46.22;;;8.70;99.90;;;;;;6215020;23;20745;-86
2023/03/20 06:25:50;;;;;;;74.22;47.00;;;8.60;99.90;;;;;;6215807;23;20407;-87
2023/03/20 06:28:16;;;;;;;73.80;46.05;;;8.60;99.90;;;;;;6241613;23;20811;-88
2023/03/20 06:30:42;;;;;;;74.60;47.27;;;8.70;99.90;;;;;;6214894;23;20448;-86
2023/03/20 06:33:09;;;;;;;79.20;47.90;;;8.70;99.90;;;;;;6214937;23;20348;-87
2023/03/20 06:35:35;;;;;;;74.15;46.13;;;8.60;99.90;;;;;;6215730;23;20368;-87
2023/03/20 06:38:01;;;;;;;72.30;45.70;;;8.70;99.90;;;;;;6214510;23;20652;-87
2023/03/20 06:40:27;;;;;;;70.57;45.38;;;8.70;99.90;;;;;;6215684;23;20359;-85
2023/03/20 06:42:53;;;;;;;69.22;43.72;;;8.70;99.90;;;;;;6215463;23;20344;-86
2023/03/20 06:45:20;;;;;;;71.72;45.38;;;8.80;99.90;;;;;;6217062;23;20376;-86
2023/03/20 06:47:46;;;;;;;72.07;44.83;;;8.80;99.90;;;;;;6244069;23;20364;-88
2023/03/20 06:50:12;;;;;;;69.07;44.40;;;8.80;99.90;;;;;;6246948;23;20397;-87
2023/03/20 06:52:38;;;;;;;71.63;44.47;;;8.70;99.90;;;;;;6230169;23;20353;-88
2023/03/20 06:55:06;;;;;;;76.67;45.80;;;8.70;99.90;;;;;;6241163;23;20360;-87
2023/03/20 06:57:32;;;;;;;73.70;44.67;;;8.60;99.90;;;;;;6233864;23;20403;-88
2023/03/20 06:59:59;;;;;;;72.32;43.78;;;8.70;99.90;;;;;;6244986;23;20341;-88
2023/03/20 07:02:25;;;;;;;72.35;44.60;;;8.80;99.90;;;;;;6216897;23;20664;-87
2023/03/20 07:04:51;;;;;;;70.85;43.63;;;8.80;99.90;;;;;;6242966;23;20352;-88
2023/03/20 07:07:17;;;;;;;63.38;40.90;;;8.80;99.90;;;;;;6215923;23;20502;-88
2023/03/20 07:09:44;;;;;;;64.95;41.25;;;8.90;99.90;;;;;;6216466;23;20359;-88
2023/03/20 07:12:15;;;;;;;59.47;40.40;;;8.90;99.90;;;;;;6216433;23;20345;-87
2023/03/20 07:14:42;;;;;;;61.57;41.03;;;9.00;99.90;;;;;;6243120;23;20894;-86
2023/03/20 07:17:09;;;;;;;59.03;39.55;;;9.10;99.90;;;;;;6215816;23;20372;-87
2023/03/20 07:19:38;;;;;;;60.78;39.25;;;9.30;99.90;;;;;;6214976;23;20355;-86
2023/03/20 07:22:14;;;;;;;57.63;37.95;;;9.10;99.90;;;;;;6215882;23;20410;-88
2023/03/20 07:24:43;;;;;;;55.17;37.60;;;9.20;99.90;;;;;;6215921;23;20380;-87
2023/03/20 07:27:08;;;;;;;56.22;37.85;;;9.30;99.90;;;;;;6215213;23;20398;-88
2023/03/20 07:29:37;;;;;;;58.00;39.03;;;9.20;99.90;;;;;;6243618;23;20340;-88
2023/03/20 07:32:03;;;;;;;57.00;38.37;;;9.30;99.90;;;;;;6214539;23;20364;-85
2023/03/20 07:34:28;;;;;;;57.30;37.97;;;9.30;99.90;;;;;;6242483;23;20376;-86
2023/03/20 07:36:55;;;;;;;55.58;38.10;;;9.40;99.90;;;;;;6215422;23;20372;-86
2023/03/20 07:39:20;;;;;;;57.93;38.97;;;9.40;99.90;;;;;;6243295;23;20419;-86
2023/03/20 07:41:46;;;;;;;54.20;37.40;;;9.60;99.90;;;;;;6242670;23;20495;-85
2023/03/20 07:44:13;;;;;;;52.78;36.33;;;9.70;99.90;;;;;;6243036;23;20343;-86
2023/03/20 07:46:39;;;;;;;51.60;37.27;;;9.80;99.90;;;;;;6215459;23;20383;-87
2023/03/20 07:49:06;;;;;;;54.60;39.63;;;9.80;99.90;;;;;;6216940;23;20400;-79
2023/03/20 07:51:32;;;;;;;50.65;38.33;;;9.80;99.90;;;;;;6214345;23;20348;-85
2023/03/20 07:53:58;;;;;;;51.33;36.42;;;10.00;99.90;;;;;;6215844;23;20357;-86
2023/03/20 07:56:24;;;;;;;50.37;35.63;;;9.90;99.90;;;;;;6236560;23;20372;-86
2023/03/20 07:58:49;;;;;;;49.27;34.63;;;9.90;99.90;;;;;;6218061;23;20383;-87
2023/03/20 08:01:15;;;;;;;49.92;34.60;;;9.80;99.90;;;;;;6214029;23;20448;-86
2023/03/20 08:03:41;;;;;;;49.20;34.95;;;9.90;99.90;;;;;;6241717;23;20945;-88
2023/03/20 08:06:08;;;;;;;46.47;34.10;;;10.10;99.90;;;;;;6214029;23;20349;-88
2023/03/20 08:08:34;;;;;;;46.40;33.05;;;10.40;99.90;;;;;;6241130;23;20345;-87
2023/03/20 08:11:00;;;;;;;42.80;31.42;;;10.60;99.90;;;;;;6215679;23;20344;-86
2023/03/20 08:13:26;;;;;;;41.05;29.40;;;10.80;99.90;;;;;;6215121;23;20353;-85
2023/03/20 08:15:52;;;;;;;38.80;28.27;;;11.20;99.90;;;;;;6243656;23;20361;-87
2023/03/20 08:18:19;;;;;;;33.65;24.83;;;11.50;99.90;;;;;;6242782;23;20454;-87
2023/03/20 08:20:45;;;;;;;35.33;24.33;;;11.80;99.90;;;;;;6243748;23;20336;-88
2023/03/20 08:23:11;;;;;;;31.40;23.27;;;11.90;99.90;;;;;;6216601;23;20359;-86
2023/03/20 08:25:36;;;;;;;31.23;23.57;;;12.10;99.90;;;;;;6243199;23;20403;-86
2023/03/20 08:28:02;;;;;;;31.88;24.65;;;12.20;99.90;;;;;;6215907;23;20357;-86
2023/03/20 08:30:29;;;;;;;32.72;24.08;;;12.10;99.90;;;;;;6242851;23;20357;-87
2023/03/20 08:32:57;;;;;;;32.97;23.35;;;12.20;99.90;;;;;;6243046;23;20345;-87
2023/03/20 08:35:22;;;;;;;30.95;24.58;;;12.60;99.90;;;;;;6216915;23;20409;-83
2023/03/20 08:37:48;;;;;;;31.83;23.40;;;12.80;99.90;;;;;;6243426;23;20380;-86
2023/03/20 08:40:14;;;;;;;29.43;22.00;;;13.30;99.90;;;;;;6243258;23;20341;-88
2023/03/20 08:42:40;;;;;;;28.02;21.33;;;13.40;99.90;;;;;;6216325;23;20363;-89
2023/03/20 08:45:06;;;;;;;27.23;19.35;;;13.30;99.90;;;;;;6242774;23;20793;-87
2023/03/20 08:47:32;;;;;;;25.42;19.17;;;13.70;99.90;;;;;;6215423;23;20348;-87
2023/03/20 08:49:57;;;;;;;25.08;18.40;;;14.00;99.90;;;;;;6243603;23;20637;-88
2023/03/20 08:52:23;;;;;;;25.77;19.03;;;14.20;99.90;;;;;;6243479;23;20340;-86
2023/03/20 08:54:50;;;;;;;28.95;20.08;;;13.70;99.90;;;;;;6243685;23;20875;-87
2023/03/20 08:57:16;;;;;;;26.33;18.85;;;13.30;99.90;;;;;;6242955;23;20372;-86
2023/03/20 08:59:41;;;;;;;22.90;17.83;;;13.30;99.90;;;;;;6215893;23;20443;-86
2023/03/20 09:02:10;;;;;;;22.13;16.30;;;13.60;99.90;;;;;;6243371;23;20677;-86
2023/03/20 09:04:35;;;;;;;20.83;15.80;;;13.50;99.90;;;;;;6214506;23;20364;-87
2023/03/20 09:07:02;;;;;;;19.15;14.25;;;13.60;99.90;;;;;;6241978;23;20345;-86
2023/03/20 09:09:28;;;;;;;19.98;14.65;;;13.60;99.90;;;;;;6243496;23;20342;-84
2023/03/20 09:11:57;;;;;;;18.73;15.00;;;13.40;99.90;;;;;;6243357;23;20345;-87
2023/03/20 09:14:24;;;;;;;19.95;14.93;;;13.10;99.90;;;;;;6216566;23;20352;-86
2023/03/20 09:16:50;;;;;;;19.77;15.32;;;12.80;99.90;;;;;;6243076;23;20368;-86
2023/03/20 09:19:17;;;;;;;20.95;16.08;;;12.30;99.90;;;;;;6243238;23;20518;-87
2023/03/20 09:21:43;;;;;;;19.98;15.18;;;12.00;99.90;;;;;;6243007;23;20854;-86
2023/03/20 09:24:10;;;;;;;18.73;14.63;;;11.80;99.90;;;;;;6216679;23;20355;-86
2023/03/20 09:26:37;;;;;;;18.17;14.30;;;11.80;99.90;;;;;;6242865;23;20384;-86
2023/03/20 09:29:04;;;;;;;21.00;15.40;;;11.80;99.90;;;;;;6216854;23;20814;-86
2023/03/20 09:31:30;;;;;;;18.23;14.15;;;11.90;99.90;;;;;;6243350;23;20352;-86
2023/03/20 09:33:55;;;;;;;19.30;14.27;;;11.90;99.90;;;;;;6241121;23;20356;-86
2023/03/20 09:36:21;;;;;;;19.93;14.20;;;11.90;99.90;;;;;;6242242;23;20368;-87
2023/03/20 09:38:48;;;;;;;22.17;15.05;;;11.90;99.90;;;;;;6263020;22;20367;-87
2023/03/20 09:41:21;;;;;;;16.80;13.40;;;12.00;99.90;;;;;;6259728;22;20364;-86
2023/03/20 09:44:29;;;;;;;18.77;13.52;;;12.40;99.90;;;;;;6251550;23;20417;-86
2023/03/20 09:47:09;;;;;;;21.53;13.97;;;12.60;99.90;;;;;;6242232;23;20371;-87
2023/03/20 09:50:00;;;;;;;18.67;13.48;;;12.60;99.90;;;;;;6213734;23;20657;-86
2023/03/20 09:53:02;;;;;;;16.10;12.50;;;12.60;99.90;;;;;;6241600;23;20368;-86
2023/03/20 09:55:39;;;;;;;17.23;13.38;;;12.60;99.90;;;;;;6232260;23;20417;-86
2023/03/20 09:58:20;;;;;;;17.23;12.52;;;12.40;99.90;;;;;;6212771;23;20406;-87
2023/03/20 10:00:46;;;;;;;15.25;10.98;;;12.50;99.90;;;;;;6211513;23;20351;-86
2023/03/20 10:03:27;;;;;;;14.13;11.50;;;12.70;99.90;;;;;;6240360;23;20721;-86
2023/03/20 10:06:14;;;;;;;13.73;10.00;;;12.80;99.90;;;;;;6215101;23;20364;-87
2023/03/20 10:08:41;;;;;;;14.52;11.25;;;12.80;99.90;;;;;;6241182;23;20364;-87
2023/03/20 10:11:32;;;;;;;12.40;9.52;;;12.60;99.90;;;;;;6240215;23;20340;-88
2023/03/20 10:14:43;;;;;;;14.85;9.63;;;12.50;99.90;;;;;;6240406;23;20372;-87
2023/03/20 10:17:21;;;;;;;12.80;10.05;;;12.50;99.90;;;;;;6213131;23;20408;-87
2023/03/20 10:19:55;;;;;;;12.88;9.38;;;12.50;99.90;;;;;;6212928;23;20387;-87
2023/03/20 10:22:35;;;;;;;13.32;10.45;;;12.60;99.90;;;;;;6212658;23;20905;-86
2023/03/20 10:25:27;;;;;;;14.85;11.10;;;12.50;99.90;;;;;;6241436;23;20914;-85
2023/03/20 10:28:00;;;;;;;15.55;11.32;;;12.20;99.90;;;;;;6242459;23;20358;-87
2023/03/20 10:31:02;;;;;;;15.80;10.60;;;12.00;99.90;;;;;;6244062;23;20356;-86
2023/03/20 10:33:45;;;;;;;16.05;11.23;;;12.00;99.90;;;;;;6217377;23;20734;-86
2023/03/20 10:36:34;;;;;;;15.40;12.02;;;12.10;99.90;;;;;;6216040;23;20376;-86
2023/03/20 10:39:22;;;;;;;16.70;11.80;;;12.00;99.90;;;;;;6240125;23;20360;-87
2023/03/20 10:41:54;;;;;;;15.93;11.20;;;12.10;99.90;;;;;;6215865;23;20398;-86
2023/03/20 10:44:32;;;;;;;15.87;12.00;;;12.00;99.90;;;;;;6241021;23;20425;-86
2023/03/20 10:47:02;;;;;;;15.77;11.55;;;11.90;99.90;;;;;;6243116;23;20404;-86
2023/03/20 10:49:30;;;;;;;19.05;12.45;;;11.80;99.90;;;;;;6241202;23;20414;-84
2023/03/20 10:52:08;;;;;;;14.65;11.15;;;11.80;99.90;;;;;;6241660;23;20344;-86
2023/03/20 10:54:44;;;;;;;16.05;11.60;;;11.70;99.90;;;;;;6215475;23;20344;-85
2023/03/20 10:57:21;;;;;;;16.95;11.90;;;11.80;99.90;;;;;;6242136;23;20422;-86
2023/03/20 10:59:50;;;;;;;15.30;11.32;;;11.90;99.90;;;;;;6216439;23;20351;-86
2023/03/20 11:02:18;;;;;;;13.77;11.33;;;12.10;99.90;;;;;;6217148;23;20435;-87
2023/03/20 11:04:47;;;;;;;17.20;11.30;;;12.30;99.90;;;;;;6218869;23;20348;-83
2023/03/20 11:07:27;;;;;;;15.25;11.48;;;12.40;99.90;;;;;;6214581;23;20364;-85
2023/03/20 11:10:07;;;;;;;16.60;11.95;;;12.40;99.90;;;;;;6242906;23;20392;-87
2023/03/20 11:12:36;;;;;;;15.10;11.75;;;12.30;99.90;;;;;;6242227;23;20427;-86
2023/03/20 11:15:22;;;;;;;16.80;12.65;;;12.10;99.90;;;;;;6216417;23;20807;-86
2023/03/20 11:18:02;;;;;;;18.58;12.85;;;11.90;99.90;;;;;;6242540;23;20352;-87
2023/03/20 11:20:38;;;;;;;17.00;12.68;;;11.80;99.90;;;;;;6214308;23;20414;-84
2023/03/20 11:23:07;;;;;;;17.90;12.73;;;11.70;99.90;;;;;;6239965;23;20368;-84
2023/03/20 11:25:56;;;;;;;16.42;12.80;;;11.80;99.90;;;;;;6241578;23;20452;-86
2023/03/20 11:28:31;;;;;;;18.93;13.43;;;11.80;99.90;;;;;;6215687;23;20684;-87
2023/03/20 11:31:06;;;;;;;18.53;13.67;;;11.90;99.90;;;;;;6248342;23;20415;-86
2023/03/20 11:33:37;;;;;;;20.75;14.07;;;12.10;99.90;;;;;;6242846;23;20336;-86
2023/03/20 11:36:11;;;;;;;18.90;14.02;;;12.10;99.90;;;;;;6215168;23;20372;-85
2023/03/20 11:38:44;;;;;;;19.57;13.70;;;11.90;99.90;;;;;;6242200;23;20345;-86
2023/03/20 11:41:18;;;;;;;19.83;13.63;;;11.80;99.90;;;;;;6243419;23;20347;-86
2023/03/20 11:43:44;;;;;;;18.80;13.48;;;11.90;99.90;;;;;;6214139;23;20356;-87
2023/03/20 11:46:12;;;;;;;17.07;13.53;;;11.90;99.90;;;;;;6242983;23;20415;-87
2023/03/20 11:48:44;;;;;;;20.80;13.37;;;11.90;99.90;;;;;;6239912;23;20348;-86
2023/03/20 11:51:16;;;;;;;17.25;12.18;;;11.80;99.90;;;;;;6216734;23;20728;-86
2023/03/20 11:53:58;;;;;;;16.40;12.80;;;11.80;99.90;;;;;;6242041;23;20450;-86
2023/03/20 11:56:34;;;;;;;14.97;11.70;;;11.90;99.90;;;;;;6214762;23;20446;-86
2023/03/20 11:59:10;;;;;;;17.33;13.50;;;11.80;99.90;;;;;;6241189;23;20341;-87
2023/03/20 12:01:50;;;;;;;18.52;13.40;;;11.90;99.90;;;;;;6243226;23;20455;-86
2023/03/20 12:04:29;;;;;;;17.27;14.10;;;11.90;99.90;;;;;;6242384;23;20344;-85
2023/03/20 12:07:03;;;;;;;17.20;13.35;;;11.90;99.90;;;;;;6242541;23;20337;-85
2023/03/20 12:09:31;;;;;;;18.17;14.10;;;12.10;99.90;;;;;;6243166;23;20379;-86
2023/03/20 12:12:03;;;;;;;17.90;14.13;;;12.00;99.90;;;;;;6243237;23;20336;-86
2023/03/20 12:14:40;;;;;;;19.88;14.95;;;12.00;99.90;;;;;;6243048;23;20364;-85
2023/03/20 12:17:57;;;;;;;19.67;14.40;;;11.90;99.90;;;;;;6244006;23;20364;-86
2023/03/20 12:20:35;;;;;;;17.98;14.55;;;11.80;99.90;;;;;;6191185;23;20372;-86
2023/03/20 12:23:08;;;;;;;19.65;14.77;;;11.90;99.90;;;;;;6219351;23;20839;-86
2023/03/20 12:25:58;;;;;;;19.65;14.35;;;11.70;99.90;;;;;;6253720;22;20411;-86
2023/03/20 12:28:46;;;;;;;20.17;14.55;;;11.60;99.90;;;;;;6266522;22;20375;-86
2023/03/20 12:31:30;;;;;;;18.75;14.23;;;11.70;99.90;;;;;;6260335;22;20375;-84
2023/03/20 12:34:11;;;;;;;19.55;13.88;;;11.90;99.90;;;;;;6248986;23;20420;-87
2023/03/20 12:36:45;;;;;;;19.45;13.50;;;12.20;99.90;;;;;;6242138;23;20387;-87
2023/03/20 12:39:15;;;;;;;19.37;13.80;;;12.50;99.90;;;;;;6242284;23;20818;-86
2023/03/20 12:41:57;;;;;;;17.13;13.50;;;12.70;99.90;;;;;;6241953;23;20344;-82
2023/03/20 12:44:59;;;;;;;20.33;14.38;;;12.80;99.90;;;;;;6213157;23;20411;-83
2023/03/20 12:47:53;;;;;;;19.92;14.95;;;12.70;99.90;;;;;;6239055;23;20735;-84
2023/03/20 12:50:31;;;;;;;19.57;14.43;;;12.50;99.90;;;;;;6241664;23;20427;-84
2023/03/20 12:53:19;;;;;;;20.27;14.20;;;12.70;99.90;;;;;;6213195;23;20414;-83
2023/03/20 12:55:48;;;;;;;20.23;15.40;;;12.70;99.90;;;;;;6212391;23;20391;-82